Time;durP1;ratioP1;P1;durP2;ratioP2;P2;SDS_P1;SDS_P2;PMS_P1;PMS_P2;Temp;Humidity;BMP_temperature;BMP_pressure;BME280_temperature;BME280_humidity;BME280_pressure;Samples;Min_cycle;Max_cycle;Signal;HPM_P1;HPM_P2
2021/12/18 00:02:23;;;;;;;31.50;16.80;;;9.70;99.90;;;8.04;100.00;102882.66;4969412;28;20047;-82
2021/12/18 00:04:51;;;;;;;32.25;16.08;;;9.70;99.90;;;7.96;100.00;102885.91;4985194;28;20487;-82
2021/12/18 00:07:18;;;;;;;31.25;16.83;;;9.80;99.90;;;7.98;100.00;102889.38;4970336;28;20570;-82
2021/12/18 00:09:46;;;;;;;31.05;17.05;;;9.80;99.90;;;8.00;100.00;102881.13;4970234;28;20519;-83
2021/12/18 00:12:14;;;;;;;36.15;16.63;;;9.80;99.90;;;8.00;100.00;102881.13;4970027;28;20085;-82
2021/12/18 00:14:41;;;;;;;35.33;17.13;;;9.80;99.90;;;8.03;100.00;102880.91;4970121;28;20506;-82
2021/12/18 00:17:10;;;;;;;31.73;16.10;;;9.80;99.90;;;8.08;100.00;102884.16;4970023;28;20049;-82
2021/12/18 00:19:39;;;;;;;37.33;18.65;;;9.70;99.90;;;8.06;100.00;102883.41;4968476;28;20479;-82
2021/12/18 00:22:06;;;;;;;36.42;17.60;;;9.70;99.90;;;8.11;100.00;102883.06;4969982;28;20451;-82
2021/12/18 00:24:34;;;;;;;30.33;16.80;;;9.70;99.90;;;8.10;100.00;102876.78;4970717;28;20039;-83
2021/12/18 00:27:01;;;;;;;33.78;17.67;;;9.70;99.90;;;8.07;100.00;102882.41;4971006;28;20035;-82
2021/12/18 00:29:30;;;;;;;34.35;17.55;;;9.70;99.90;;;8.11;100.00;102874.91;4971827;28;20129;-82
2021/12/18 00:31:58;;;;;;;35.15;18.55;;;9.70;99.90;;;8.11;100.00;102862.25;4974109;28;20074;-82
2021/12/18 00:34:26;;;;;;;33.50;16.98;;;9.80;99.90;;;8.13;100.00;102860.28;4974181;28;20319;-82
2021/12/18 00:36:54;;;;;;;37.83;18.80;;;9.90;99.90;;;8.14;100.00;102872.88;4974791;28;20121;-82
2021/12/18 00:39:21;;;;;;;35.83;18.67;;;9.70;99.90;;;8.13;100.00;102870.25;4974535;28;20050;-83
2021/12/18 00:42:00;;;;;;;40.72;19.33;;;9.70;99.90;;;8.13;100.00;102865.72;4973901;28;20074;-82
2021/12/18 00:44:28;;;;;;;37.03;18.67;;;9.70;99.90;;;8.11;100.00;102869.50;4973773;28;20043;-82
2021/12/18 00:46:55;;;;;;;36.30;18.45;;;9.70;99.90;;;8.11;100.00;102875.81;4973761;28;20047;-83
2021/12/18 00:49:24;;;;;;;38.83;18.52;;;9.70;99.90;;;8.10;100.00;102874.06;4973636;28;20078;-82
2021/12/18 00:51:52;;;;;;;35.67;18.25;;;9.70;99.90;;;8.12;100.00;102880.25;4973221;28;20046;-82
2021/12/18 00:54:20;;;;;;;36.78;19.35;;;9.70;99.90;;;8.12;100.00;102874.81;4971799;28;20161;-82
2021/12/18 00:56:47;;;;;;;39.15;18.77;;;9.70;99.90;;;8.02;100.00;102880.03;4973489;28;20070;-83
2021/12/18 00:59:14;;;;;;;47.10;21.33;;;9.80;99.90;;;8.01;100.00;102888.28;4973316;28;20077;-83
2021/12/18 01:01:42;;;;;;;46.22;21.08;;;9.80;99.90;;;8.01;100.00;102888.28;4972930;28;20077;-83
2021/12/18 01:04:10;;;;;;;43.58;21.85;;;9.80;99.90;;;7.98;100.00;102889.38;4973160;28;20114;-82
2021/12/18 01:06:37;;;;;;;40.17;19.98;;;9.80;99.90;;;7.97;100.00;102892.19;4973250;28;20505;-82
2021/12/18 01:09:06;;;;;;;41.80;19.35;;;9.80;99.90;;;7.95;100.00;102880.59;4971788;28;20055;-82
2021/12/18 01:11:36;;;;;;;40.35;20.30;;;9.80;99.90;;;7.98;100.00;102888.53;4971703;28;20090;-82
2021/12/18 01:22:39;;;;;;;46.35;19.80;;;9.70;99.90;;;8.01;100.00;102891.88;4971429;28;20058;-82
2021/12/18 01:22:48;;;;;;;43.40;20.63;;;9.80;99.90;;;7.95;100.00;102900.44;4972527;28;20074;-82
2021/12/18 01:25:19;;;;;;;40.75;19.70;;;9.70;99.90;;;7.98;100.00;102900.22;4972936;28;20051;-82
2021/12/18 01:27:48;;;;;;;39.65;19.33;;;9.70;99.90;;;7.91;100.00;102896.19;4973087;28;20051;-83
2021/12/18 01:30:17;;;;;;;36.75;18.50;;;9.80;99.90;;;7.87;100.00;102897.41;4972685;28;20049;-82
2021/12/18 01:32:45;;;;;;;40.83;20.40;;;9.80;99.90;;;7.93;100.00;102896.09;4974958;28;20054;-82
2021/12/18 01:35:12;;;;;;;43.72;20.35;;;9.80;99.90;;;7.92;100.00;102894.34;4971856;28;20050;-82
2021/12/18 01:37:42;;;;;;;43.58;20.05;;;9.80;99.90;;;7.91;100.00;102892.63;4972537;28;20136;-82
2021/12/18 01:40:11;;;;;;;43.28;21.13;;;9.70;99.90;;;7.94;100.00;102897.81;4971656;28;20097;-82
2021/12/18 01:45:33;;;;;;;45.28;21.20;;;9.70;99.90;;;7.89;100.00;102891.88;4972803;28;20407;-82
2021/12/18 01:53:30;;;;;;;50.92;23.63;;;9.70;99.90;;;7.93;100.00;102887.97;4989072;28;20050;-82
2021/12/18 01:55:57;;;;;;;44.22;21.38;;;9.70;99.90;;;7.95;100.00;102888.72;4991685;28;20053;-81
2021/12/18 01:58:27;;;;;;;45.22;21.90;;;9.70;99.90;;;7.94;100.00;102887.88;4991477;28;20082;-82
2021/12/18 02:01:01;;;;;;;44.55;21.77;;;9.60;99.90;;;7.95;100.00;102892.28;4991398;28;20056;-81
2021/12/18 02:03:28;;;;;;;;;;;9.60;99.90;;;7.99;100.00;102890.22;4992492;28;20042;-82
2021/12/18 02:05:56;;;;;;;44.60;21.58;;;9.60;99.90;;;7.98;100.00;102883.09;4991474;28;19960;-81
2021/12/18 02:08:25;;;;;;;43.55;21.85;;;9.60;99.90;;;7.97;100.00;102887.63;4991284;28;20595;-82
2021/12/18 02:10:58;;;;;;;42.47;22.42;;;9.60;99.90;;;7.97;100.00;102886.78;4991333;28;20038;-82
2021/12/18 02:13:40;;;;;;;46.83;22.55;;;9.60;99.90;;;7.98;100.00;102885.81;4991331;28;20046;-81
2021/12/18 02:21:38;;;;;;;41.80;19.70;;;9.60;99.90;;;7.97;100.00;102871.34;4982831;28;20125;-82
2021/12/18 02:24:07;;;;;;;34.55;17.05;;;9.60;99.90;;;7.97;100.00;102860.50;4971727;28;20125;-82
2021/12/18 02:26:35;;;;;;;31.70;16.00;;;9.60;99.90;;;7.91;100.00;102866.38;4971687;28;20046;-82
2021/12/18 02:29:04;;;;;;;33.38;16.40;;;9.60;99.90;;;7.90;100.00;102861.06;4971577;28;20059;-82
2021/12/18 02:31:32;;;;;;;25.80;14.07;;;9.50;99.90;;;7.88;100.00;102852.16;4971376;28;20047;-82
2021/12/18 02:34:01;;;;;;;29.80;14.35;;;9.60;99.90;;;7.92;100.00;102861.81;4971533;28;20047;-82
2021/12/18 02:36:29;;;;;;;25.95;12.77;;;9.60;99.90;;;7.87;100.00;102842.31;4971471;28;20046;-82
2021/12/18 02:39:19;;;;;;;20.95;11.35;;;9.60;99.90;;;7.91;100.00;102843.81;4969962;28;20050;-82
2021/12/18 02:42:06;;;;;;;24.38;11.52;;;9.60;99.90;;;7.91;100.00;102835.69;4971122;28;20046;-82
2021/12/18 02:44:35;;;;;;;21.80;11.45;;;9.60;99.90;;;7.90;100.00;102832.13;4971345;28;20213;-82
2021/12/18 02:47:03;;;;;;;21.05;10.48;;;9.60;99.90;;;7.91;100.00;102830.28;4971287;28;20047;-83
2021/12/18 02:49:30;;;;;;;21.27;9.95;;;9.60;99.90;;;7.86;100.00;102835.16;4971302;28;20101;-82
2021/12/18 02:51:58;;;;;;;21.23;11.07;;;9.60;99.90;;;7.85;100.00;102833.44;4971133;28;20043;-82
2021/12/18 02:54:27;;;;;;;21.45;10.98;;;9.60;99.90;;;7.86;100.00;102832.44;4971257;28;20411;-82
2021/12/18 02:56:54;;;;;;;20.35;10.35;;;9.60;99.90;;;7.92;100.00;102829.28;4971299;28;20062;-82
2021/12/18 02:59:24;;;;;;;22.83;11.15;;;9.60;99.90;;;7.92;100.00;102826.56;4970898;28;20121;-82
2021/12/18 03:01:51;;;;;;;21.13;9.88;;;9.50;99.90;;;7.90;100.00;102831.22;4970791;28;20047;-82
2021/12/18 03:04:23;;;;;;;24.55;11.13;;;9.60;99.90;;;7.88;100.00;102834.09;4970880;28;20051;-82
2021/12/18 03:06:55;;;;;;;19.13;10.20;;;9.60;99.90;;;7.87;100.00;102836.91;4970776;28;20149;-82
2021/12/18 03:23:27;;;;;;;23.17;11.98;;;9.60;99.90;;;7.90;100.00;102836.66;4970529;28;20061;-82
2021/12/18 03:25:57;;;;;;;25.15;12.52;;;9.50;99.90;;;7.90;100.00;102839.38;4970787;28;20480;-82
2021/12/18 03:28:26;;;;;;;26.00;12.93;;;9.50;99.90;;;7.83;100.00;102839.81;4970714;28;20039;-82
2021/12/18 03:30:55;;;;;;;29.08;13.10;;;9.50;99.90;;;7.82;100.00;102840.81;4970685;28;20126;-82
2021/12/18 03:33:23;;;;;;;29.42;14.32;;;9.50;99.90;;;7.72;100.00;102838.84;4972785;28;20055;-82
2021/12/18 03:35:50;;;;;;;29.77;13.70;;;9.60;99.90;;;7.71;100.00;102831.69;4970308;28;20043;-82
2021/12/18 03:38:17;;;;;;;27.60;14.05;;;9.50;99.90;;;7.81;100.00;102838.19;4970269;28;20058;-82
2021/12/18 03:40:45;;;;;;;26.77;13.70;;;9.60;99.90;;;7.81;100.00;102835.50;4970089;28;20507;-82
2021/12/18 03:43:12;;;;;;;30.75;14.80;;;9.60;99.90;;;7.80;100.00;102834.59;4969277;28;20160;-82
2021/12/18 03:45:41;;;;;;;29.25;14.35;;;9.60;99.90;;;7.81;100.00;102832.78;4970113;28;20046;-82
2021/12/18 03:48:08;;;;;;;34.85;15.00;;;9.60;99.90;;;7.73;100.00;102833.31;4970041;28;20066;-82
2021/12/18 03:50:36;;;;;;;29.13;14.68;;;9.60;99.90;;;7.80;100.00;102833.75;4970174;28;20122;-82
2021/12/18 03:53:03;;;;;;;26.27;13.10;;;9.60;99.90;;;7.75;100.00;102825.94;4970789;28;20161;-82
2021/12/18 03:55:30;;;;;;;27.58;13.68;;;9.60;99.90;;;7.79;100.00;102832.03;4989214;28;20089;-82
2021/12/18 03:57:57;;;;;;;28.70;13.70;;;9.60;99.90;;;7.78;100.00;102823.00;4989487;28;20129;-82
2021/12/18 04:00:25;;;;;;;25.63;12.75;;;9.60;99.90;;;7.80;100.00;102826.47;4989636;28;20151;-82
2021/12/18 04:02:56;;;;;;;28.30;13.90;;;9.60;99.90;;;7.81;100.00;102816.50;4989321;28;20050;-82
2021/12/18 04:05:23;;;;;;;27.13;13.52;;;9.50;99.90;;;7.83;100.00;102825.41;4989615;28;20145;-82
2021/12/18 04:07:51;;;;;;;24.42;12.45;;;9.50;99.90;;;7.83;100.00;102836.25;4989502;28;20121;-82
2021/12/18 04:10:19;;;;;;;33.75;14.90;;;9.50;99.90;;;7.78;100.00;102833.84;4989230;28;20511;-82
2021/12/18 04:12:48;;;;;;;31.50;15.02;;;9.50;99.90;;;7.81;100.00;102838.19;4989045;28;20074;-82
2021/12/18 04:15:16;;;;;;;22.55;11.13;;;9.60;99.90;;;7.81;100.00;102827.34;4971656;28;20089;-82
2021/12/18 04:17:43;;;;;;;23.38;12.43;;;9.60;99.90;;;7.86;100.00;102840.56;4969699;28;20050;-82
2021/12/18 04:20:15;;;;;;;25.38;11.95;;;9.60;99.90;;;7.87;100.00;102832.34;4978126;28;20490;-82
2021/12/18 04:22:45;;;;;;;25.20;12.23;;;9.50;99.90;;;7.87;100.00;102824.19;4987276;28;20211;-82
2021/12/18 04:25:12;;;;;;;23.20;11.73;;;9.50;99.90;;;7.83;100.00;102828.13;4989045;28;20073;-82
2021/12/18 04:27:39;;;;;;;27.95;12.43;;;9.50;99.90;;;7.83;100.00;102828.13;4988915;28;20101;-82
2021/12/18 04:30:08;;;;;;;26.08;11.70;;;9.60;99.90;;;7.89;100.00;102832.22;4988703;28;20406;-82
2021/12/18 04:32:35;;;;;;;22.73;11.07;;;9.50;99.90;;;7.89;100.00;102832.22;4978417;28;20496;-82
2021/12/18 04:35:03;;;;;;;20.83;10.85;;;9.60;99.90;;;7.88;100.00;102844.94;4968315;28;20047;-82
2021/12/18 04:37:31;;;;;;;26.45;12.77;;;9.60;99.90;;;7.90;100.00;102839.38;4969540;28;20049;-82
2021/12/18 04:39:59;;;;;;;29.65;12.32;;;9.60;99.90;;;7.87;100.00;102842.31;4968970;28;20130;-82
2021/12/18 04:42:27;;;;;;;29.55;13.13;;;9.50;99.90;;;7.81;100.00;102841.78;4969469;28;20074;-82
2021/12/18 04:44:54;;;;;;;28.25;13.02;;;9.60;99.90;;;7.79;100.00;102837.44;4969669;28;20047;-82
2021/12/18 04:47:21;;;;;;;31.25;13.20;;;9.60;99.90;;;7.71;100.00;102842.53;4969588;28;20078;-82
2021/12/18 04:49:48;;;;;;;31.98;13.50;;;9.60;99.90;;;7.72;100.00;102837.00;4968094;28;20162;-82
2021/12/18 04:52:16;;;;;;;29.42;12.85;;;9.60;99.90;;;7.80;100.00;102845.44;4969286;28;20074;-82
2021/12/18 04:54:45;;;;;;;30.55;13.10;;;9.50;99.90;;;7.88;100.00;102844.03;4969292;28;20066;-83
2021/12/18 04:57:12;;;;;;;35.83;14.43;;;9.50;99.90;;;7.83;100.00;102847.09;4969424;28;20043;-84
2021/12/18 04:59:43;;;;;;;30.13;13.93;;;9.50;99.90;;;7.85;100.00;102849.69;4968910;28;20055;-82
2021/12/18 05:02:13;;;;;;;29.23;12.85;;;9.50;99.90;;;7.85;100.00;102844.28;4968953;28;20057;-83
2021/12/18 05:04:40;;;;;;;32.88;13.55;;;9.50;99.90;;;7.81;100.00;102846.34;4969401;28;20054;-82
2021/12/18 05:07:10;;;;;;;31.70;13.23;;;9.50;99.90;;;7.86;100.00;102846.00;4969569;28;20129;-82
2021/12/18 05:09:37;;;;;;;31.65;13.13;;;9.50;99.90;;;7.86;100.00;102840.56;4969569;28;20113;-79
2021/12/18 05:12:08;;;;;;;30.08;13.45;;;9.50;99.90;;;7.86;100.00;102835.16;4969483;28;20053;-80
2021/12/18 05:14:35;;;;;;;31.85;14.15;;;9.50;99.90;;;7.85;100.00;102830.72;4969851;28;20043;-81
2021/12/18 05:17:02;;;;;;;29.90;13.25;;;9.50;99.90;;;7.83;100.00;102826.25;4972474;28;20046;-81
2021/12/18 05:19:30;;;;;;;34.90;14.32;;;9.50;99.90;;;7.88;100.00;102835.91;4973005;28;20121;-81
2021/12/18 05:21:57;;;;;;;30.15;13.20;;;9.50;99.90;;;7.81;100.00;102827.34;4972572;28;20050;-81
2021/12/18 05:24:24;;;;;;;33.50;13.85;;;9.50;99.90;;;7.81;100.00;102828.22;4972838;28;20050;-81
2021/12/18 05:26:51;;;;;;;36.78;14.75;;;9.50;99.90;;;7.82;100.00;102835.38;4972732;28;20423;-81
2021/12/18 05:29:20;;;;;;;35.47;13.95;;;9.50;99.90;;;7.83;100.00;102830.81;4972509;28;20074;-80
2021/12/18 05:31:48;;;;;;;33.22;13.95;;;9.50;99.90;;;7.81;100.00;102839.06;4972275;28;20081;-81
2021/12/18 05:34:21;;;;;;;32.33;14.20;;;9.50;99.90;;;7.86;100.00;102846.00;4975049;28;20402;-80
2021/12/18 05:39:33;;;;;;;32.47;14.00;;;9.50;99.90;;;7.88;100.00;102839.50;4970122;28;20105;-81
2021/12/18 05:42:01;;;;;;;34.38;14.15;;;9.40;99.90;;;7.87;100.00;102843.19;4972017;28;20046;-82
2021/12/18 05:44:29;;;;;;;32.67;15.18;;;9.50;99.90;;;7.82;100.00;102848.94;4972562;28;20043;-80
2021/12/18 05:46:57;;;;;;;30.60;13.63;;;9.50;99.90;;;7.85;100.00;102855.13;4972536;28;20047;-80
2021/12/18 05:49:24;;;;;;;31.30;13.63;;;9.50;99.90;;;7.80;100.00;102845.44;4972063;28;20122;-81
2021/12/18 05:51:51;;;;;;;32.85;14.02;;;9.50;99.90;;;7.76;100.00;102846.63;4971803;28;20130;-80
2021/12/18 05:54:19;;;;;;;34.38;14.05;;;9.50;99.90;;;7.78;100.00;102857.38;4971868;28;20047;-83
2021/12/18 05:56:46;;;;;;;34.67;13.95;;;9.50;99.90;;;7.74;100.00;102854.00;4972361;28;20146;-80
2021/12/18 05:59:13;;;;;;;36.17;14.35;;;9.50;99.90;;;7.78;100.00;102860.94;4992169;23;20803;-81
2021/12/18 06:01:42;;;;;;;32.85;13.35;;;9.50;99.90;;;7.71;100.00;102856.06;4990651;28;20133;-83
2021/12/18 06:04:10;;;;;;;35.25;15.45;;;9.50;99.90;;;7.73;100.00;102849.59;4989844;28;20411;-84
2021/12/18 06:06:37;;;;;;;33.15;13.93;;;9.50;99.90;;;7.79;100.00;102851.84;4991268;28;20515;-85
2021/12/18 06:09:04;;;;;;;30.70;13.13;;;9.50;99.90;;;7.86;100.00;102848.69;4987925;28;20150;-84
2021/12/18 06:11:33;;;;;;;27.38;13.15;;;9.50;99.90;;;7.92;100.00;102842.84;4971490;28;20133;-85
2021/12/18 06:14:00;;;;;;;25.92;12.68;;;9.50;99.90;;;7.92;100.00;102835.59;4979679;28;20058;-84
2021/12/18 06:16:27;;;;;;;26.52;12.45;;;9.50;99.90;;;7.93;100.00;102841.88;4991094;28;20046;-85
2021/12/18 06:18:56;;;;;;;34.10;14.15;;;9.50;99.90;;;7.93;100.00;102844.59;4978317;28;20074;-83
2021/12/18 06:21:23;;;;;;;28.75;13.45;;;9.50;99.90;;;7.92;100.00;102850.97;4971399;28;20051;-80
2021/12/18 06:23:54;;;;;;;26.10;12.30;;;9.50;99.90;;;7.87;100.00;102847.75;4971823;28;20043;-80
2021/12/18 06:26:27;;;;;;;31.27;13.77;;;9.60;99.90;;;7.85;100.00;102861.41;4971588;28;20046;-81
2021/12/18 06:28:56;;;;;;;32.72;14.32;;;9.50;99.90;;;7.89;100.00;102856.63;4971770;28;20105;-81
2021/12/18 06:31:24;;;;;;;35.33;14.25;;;9.50;99.90;;;7.96;100.00;102849.81;4971366;28;20049;-82
2021/12/18 06:33:51;;;;;;;28.20;12.27;;;9.50;99.90;;;7.96;100.00;102847.09;4971482;28;20047;-82
2021/12/18 06:36:20;;;;;;;26.27;12.43;;;9.60;99.90;;;7.96;100.00;102836.25;4971451;28;20126;-81
2021/12/18 06:38:47;;;;;;;27.08;12.57;;;9.60;99.90;;;7.97;100.00;102848.81;4986130;28;20046;-82
2021/12/18 06:41:14;;;;;;;28.35;11.85;;;9.60;99.90;;;7.98;100.00;102839.72;4985463;28;20147;-82
2021/12/18 06:43:42;;;;;;;23.83;11.18;;;9.50;99.90;;;7.97;100.00;102837.97;4990705;28;20142;-82
2021/12/18 06:46:09;;;;;;;31.33;12.10;;;9.60;99.90;;;7.93;100.00;102836.44;4990647;28;20039;-82
2021/12/18 06:48:36;;;;;;;24.92;11.60;;;9.60;99.90;;;8.00;100.00;102837.75;4990346;28;20499;-84
2021/12/18 06:51:04;;;;;;;22.77;11.27;;;9.60;99.90;;;8.04;100.00;102836.53;4988604;28;20486;-82
2021/12/18 06:53:32;;;;;;;25.67;10.82;;;9.60;99.90;;;8.01;100.00;102839.47;4990521;28;20134;-81
2021/12/18 06:56:00;;;;;;;23.27;10.45;;;9.60;99.90;;;8.02;100.00;102835.78;4990430;28;20126;-81
2021/12/18 06:58:27;;;;;;;23.70;11.13;;;9.60;99.90;;;8.00;100.00;102837.75;4990475;28;20586;-82
2021/12/18 07:00:54;;;;;;;27.83;11.65;;;9.60;99.90;;;8.06;100.00;102831.03;4990694;28;20070;-87
2021/12/18 07:03:22;;;;;;;24.50;10.95;;;9.60;99.90;;;8.05;100.00;102823.84;4989356;28;20096;-84
2021/12/18 07:05:50;;;;;;;22.17;10.30;;;9.60;99.90;;;8.07;100.00;102832.72;4990163;28;20077;-83
2021/12/18 07:08:17;;;;;;;27.63;11.18;;;9.60;99.90;;;8.09;100.00;102833.50;4990423;28;20080;-84
2021/12/18 07:10:48;;;;;;;23.58;10.50;;;9.60;99.90;;;8.10;100.00;102822.53;4990288;28;20046;-83
2021/12/18 07:13:16;;;;;;;30.55;12.02;;;9.60;99.90;;;8.09;100.00;102826.25;4989849;28;20050;-83
2021/12/18 07:15:43;;;;;;;28.77;12.32;;;9.60;99.90;;;8.13;100.00;102833.19;4989786;28;20049;-83
2021/12/18 07:18:10;;;;;;;25.75;11.65;;;9.60;99.90;;;8.11;100.00;102826.09;4990015;28;20605;-83
2021/12/18 07:20:38;;;;;;;27.17;10.98;;;9.60;99.90;;;8.03;100.00;102832.09;4989907;28;20504;-83
2021/12/18 07:23:06;;;;;;;26.70;11.45;;;9.70;99.90;;;8.02;100.00;102830.38;4989691;28;20050;-84
2021/12/18 07:25:33;;;;;;;30.83;11.70;;;9.60;99.90;;;8.02;100.00;102831.22;4992268;28;20119;-83
2021/12/18 07:28:02;;;;;;;25.58;11.20;;;9.60;99.90;;;8.06;100.00;102837.31;4989712;28;20133;-83
2021/12/18 07:30:29;;;;;;;26.48;11.98;;;9.60;99.90;;;8.10;100.00;102838.81;4990295;28;20141;-83
2021/12/18 07:33:10;;;;;;;28.55;12.27;;;9.60;99.90;;;8.10;100.00;102838.81;4988362;28;20038;-83
2021/12/18 07:35:42;;;;;;;30.42;12.35;;;9.60;99.90;;;8.11;100.00;102845.97;4990563;28;20065;-84
2021/12/18 07:38:11;;;;;;;27.00;12.15;;;9.60;99.90;;;8.06;100.00;102848.16;4989195;28;20121;-83
2021/12/18 07:40:41;;;;;;;29.67;11.82;;;9.60;99.90;;;8.11;100.00;102851.41;4989710;28;20521;-84
2021/12/18 07:43:09;;;;;;;27.30;12.02;;;9.60;99.90;;;8.12;100.00;102850.41;4989116;28;20084;-83
2021/12/18 07:45:37;;;;;;;32.08;12.63;;;9.60;99.90;;;8.09;100.00;102847.94;4989683;28;20062;-83
2021/12/18 07:48:10;;;;;;;24.70;10.77;;;9.70;99.90;;;8.03;100.00;102842.94;4992689;28;20072;-81
2021/12/18 07:50:37;;;;;;;28.77;11.10;;;9.70;99.90;;;7.96;100.00;102847.94;4989453;28;20050;-81
2021/12/18 07:53:05;;;;;;;30.80;11.27;;;9.70;99.90;;;7.96;100.00;102852.50;4999093;28;20121;-82
2021/12/18 07:55:32;;;;;;;33.28;12.75;;;9.60;99.90;;;7.97;100.00;102848.81;4989194;28;20117;-83
2021/12/18 07:57:59;;;;;;;31.30;13.35;;;9.60;99.90;;;7.96;100.00;102841.66;4989347;28;20073;-80
2021/12/18 08:00:29;;;;;;;31.08;13.23;;;9.60;99.90;;;7.92;100.00;102840.13;4989190;28;20046;-81
2021/12/18 08:02:56;;;;;;;31.65;12.95;;;9.60;99.90;;;7.90;100.00;102842.06;4989124;28;20128;-79
2021/12/18 08:05:24;;;;;;;33.78;13.70;;;9.60;99.90;;;7.94;100.00;102840.88;4989441;28;20113;-79
2021/12/18 08:07:51;;;;;;;36.13;14.60;;;9.60;99.90;;;7.97;100.00;102837.97;4989555;28;20514;-80
2021/12/18 08:10:18;;;;;;;38.28;15.15;;;9.60;99.90;;;7.99;100.00;102841.44;4989371;28;20065;-80
2021/12/18 08:12:45;;;;;;;44.08;17.58;;;9.60;99.90;;;7.99;100.00;102842.28;4989191;28;20146;-79
2021/12/18 08:15:13;;;;;;;47.80;18.10;;;9.60;99.90;;;7.95;100.00;102843.50;4989330;28;20568;-81
2021/12/18 08:17:44;;;;;;;46.83;17.20;;;9.60;99.90;;;7.92;100.00;102840.13;4989475;28;20121;-81
2021/12/18 08:20:12;;;;;;;44.53;16.50;;;9.60;99.90;;;7.94;100.00;102838.16;4989410;28;20082;-81
2021/12/18 08:22:39;;;;;;;42.22;16.52;;;9.60;99.90;;;7.99;100.00;102841.44;4989111;28;20104;-81
2021/12/18 08:25:08;;;;;;;52.80;16.55;;;9.60;99.90;;;7.94;100.00;102833.63;4989133;28;20050;-81
2021/12/18 08:27:35;;;;;;;38.00;14.68;;;9.60;99.90;;;7.92;100.00;102835.59;4989285;28;20418;-80
2021/12/18 08:30:04;;;;;;;35.92;13.73;;;9.60;99.90;;;7.90;100.00;102832.13;4989032;28;20117;-81
2021/12/18 08:32:45;;;;;;;39.28;14.82;;;9.60;99.90;;;7.93;100.00;102837.31;4988729;28;20046;-80
2021/12/18 08:35:12;;;;;;;40.05;15.43;;;9.60;99.90;;;7.96;100.00;102834.38;4988080;28;20149;-80
2021/12/18 08:37:40;;;;;;;36.47;14.50;;;9.60;99.90;;;7.98;100.00;102840.56;4989035;28;20077;-80
2021/12/18 08:40:12;;;;;;;42.42;15.32;;;9.60;99.90;;;7.96;100.00;102837.09;4988564;28;20510;-84
2021/12/18 08:42:42;;;;;;;40.85;15.23;;;9.60;99.90;;;8.07;100.00;102847.16;4988742;28;20050;-80
2021/12/18 08:45:12;;;;;;;38.88;15.15;;;9.60;99.90;;;8.08;100.00;102835.34;4987670;28;20149;-80
2021/12/18 08:47:42;;;;;;;38.58;14.95;;;9.60;99.90;;;8.11;100.00;102840.56;4989214;28;20125;-80
2021/12/18 08:50:16;;;;;;;34.45;13.93;;;9.60;99.90;;;8.16;100.00;102835.66;4991018;28;20137;-80
2021/12/18 08:52:50;;;;;;;36.10;15.00;;;9.60;99.90;;;8.13;100.00;102843.13;4992674;28;20054;-80
2021/12/18 08:55:19;;;;;;;38.88;13.93;;;9.60;99.90;;;8.05;100.00;102840.13;4992750;28;20081;-82
2021/12/18 08:57:46;;;;;;;37.38;13.60;;;9.70;99.90;;;8.08;100.00;102840.75;4992621;28;20046;-84
2021/12/18 09:00:18;;;;;;;34.83;13.57;;;9.70;99.90;;;8.14;100.00;102834.88;4992533;28;20046;-82
2021/12/18 09:02:49;;;;;;;33.60;14.45;;;9.70;99.90;;;8.18;100.00;102844.53;4992320;28;20454;-83
2021/12/18 09:05:18;;;;;;;37.65;14.18;;;9.70;99.90;;;8.16;100.00;102838.34;4992646;28;20101;-81
2021/12/18 09:07:48;;;;;;;33.83;13.75;;;9.70;99.90;;;8.19;100.00;102848.13;4992556;28;20054;-81
2021/12/18 09:10:15;;;;;;;39.92;14.80;;;9.70;99.90;;;8.17;100.00;102845.53;4992122;28;20047;-82
2021/12/18 09:12:48;;;;;;;35.92;14.32;;;9.70;99.90;;;8.17;100.00;102845.53;4992283;28;20046;-80
2021/12/18 09:15:16;;;;;;;35.63;13.95;;;9.70;99.90;;;8.18;100.00;102841.81;4992458;28;20050;-81
2021/12/18 09:17:43;;;;;;;37.17;14.45;;;9.70;99.90;;;8.21;100.00;102846.19;4992283;28;20125;-80
2021/12/18 09:20:15;;;;;;;36.22;15.50;;;9.70;99.90;;;8.20;100.00;102842.56;4992368;28;20450;-82
2021/12/18 09:22:48;;;;;;;40.80;16.40;;;9.70;99.90;;;8.21;100.00;102849.75;4992118;28;20510;-81
2021/12/18 09:25:16;;;;;;;44.30;16.00;;;9.70;99.90;;;8.17;100.00;102840.09;4993596;28;20515;-81
2021/12/18 09:27:45;;;;;;;47.53;18.25;;;9.70;99.90;;;8.18;100.00;102841.81;4993217;28;20507;-81
2021/12/18 09:30:15;;;;;;;41.45;17.67;;;9.80;99.90;;;8.19;100.00;102843.56;4992196;28;20101;-81
2021/12/18 09:32:47;;;;;;;39.37;18.50;;;9.80;99.90;;;8.22;100.00;102843.34;4991979;28;20133;-81
2021/12/18 09:35:15;;;;;;;40.22;16.90;;;9.80;99.90;;;8.22;100.00;102831.63;4992038;28;20058;-85
2021/12/18 09:37:45;;;;;;;34.38;14.48;;;9.80;99.90;;;8.22;100.00;102843.34;4990610;28;20129;-82
2021/12/18 09:40:18;;;;;;;40.10;16.05;;;9.90;99.90;;;8.17;100.00;102845.53;4990076;28;20047;-83
2021/12/18 09:42:45;;;;;;;35.78;15.70;;;9.80;99.90;;;8.21;100.00;102843.47;4981442;28;20070;-83
2021/12/18 09:45:17;;;;;;;33.03;15.07;;;9.80;99.90;;;8.22;100.00;102843.34;4977997;28;20085;-84
2021/12/18 09:47:48;;;;;;;35.97;16.30;;;9.80;99.90;;;8.19;100.00;102838.16;4977930;28;20046;-83
2021/12/18 09:50:37;;;;;;;46.92;18.25;;;9.80;99.90;;;8.25;100.00;102846.81;4977020;28;20778;-83
2021/12/18 09:53:26;;;;;;;33.40;15.32;;;9.80;99.90;;;8.20;100.00;102839.88;4967387;28;20209;-83
2021/12/18 09:55:58;;;;;;;35.25;14.73;;;9.80;99.90;;;8.20;100.00;102834.44;4990692;28;20057;-83
2021/12/18 09:58:25;;;;;;;35.15;14.20;;;9.80;99.90;;;8.17;100.00;102823.81;4992844;28;20514;-83
2021/12/18 10:00:53;;;;;;;32.95;14.35;;;9.80;99.90;;;8.18;100.00;102838.25;4990425;28;20054;-83
2021/12/18 10:03:44;;;;;;;35.80;15.30;;;9.80;99.90;;;8.16;100.00;102832.06;4980563;28;20542;-83
2021/12/18 10:06:33;;;;;;;37.33;16.02;;;9.80;99.90;;;8.16;100.00;102829.34;4976664;28;20042;-83
2021/12/18 10:09:04;;;;;;;38.58;15.55;;;9.70;99.90;;;8.16;100.00;102829.34;4991097;28;20655;-83
2021/12/18 10:11:32;;;;;;;31.38;13.82;;;9.80;99.90;;;8.17;100.00;102817.53;4989616;28;20482;-83
2021/12/18 10:14:03;;;;;;;35.22;13.32;;;9.80;99.90;;;8.23;100.00;102831.50;4991105;28;20046;-83
2021/12/18 10:16:31;;;;;;;31.73;14.13;;;9.80;99.90;;;8.23;100.00;102828.81;4991079;28;20494;-83
2021/12/18 10:19:00;;;;;;;34.70;14.70;;;9.80;99.90;;;8.27;100.00;102834.00;4990308;28;20486;-83
2021/12/18 10:21:30;;;;;;;37.70;15.07;;;9.80;99.90;;;8.25;100.00;102819.69;4990743;28;20046;-83
2021/12/18 10:24:17;;;;;;;32.65;15.05;;;9.80;99.90;;;8.26;100.00;102821.41;4991423;28;20627;-83
2021/12/18 10:26:45;;;;;;;32.97;15.13;;;9.80;99.90;;;8.26;100.00;102818.69;4991215;28;20046;-84
2021/12/18 10:29:36;;;;;;;34.22;15.57;;;9.80;99.90;;;8.23;100.00;102807.09;4991412;28;20057;-83
2021/12/18 10:32:11;;;;;;;37.33;15.70;;;9.80;99.90;;;8.17;100.00;102810.25;4990311;28;20053;-83
2021/12/18 10:34:44;;;;;;;32.80;15.25;;;9.80;99.90;;;8.24;100.00;102807.97;4990444;28;20038;-84
2021/12/18 10:37:19;;;;;;;37.50;16.38;;;9.80;99.90;;;8.25;100.00;102803.41;4989587;28;20093;-83
2021/12/18 10:40:08;;;;;;;35.92;16.98;;;9.80;99.90;;;8.26;100.00;102800.56;4990916;28;20196;-83
2021/12/18 10:42:39;;;;;;;35.88;15.68;;;9.80;99.90;;;8.28;100.00;102798.63;4988690;28;20499;-83
2021/12/18 10:45:10;;;;;;;;;;;9.80;99.90;;;8.29;100.00;102805.78;4974419;28;20519;-84
2021/12/18 10:48:00;;;;;;;36.25;16.23;;;9.80;99.90;;;8.20;100.00;102796.47;4988050;28;19972;-84
2021/12/18 10:50:36;;;;;;;36.72;16.77;;;9.80;99.90;;;8.17;100.00;102796.72;4990100;28;20046;-83
2021/12/18 10:53:08;;;;;;;36.72;16.02;;;9.80;99.90;;;8.23;100.00;102793.53;4971285;28;20097;-84
2021/12/18 10:55:46;;;;;;;36.85;16.50;;;9.80;99.90;;;8.21;100.00;102790.06;4986594;28;20120;-84